Time;durP1;ratioP1;P1;durP2;ratioP2;P2;SDS_P1;SDS_P2;PMS_P1;PMS_P2;Temp;Humidity;BMP_temperature;BMP_pressure;BME280_temperature;BME280_humidity;BME280_pressure;Samples;Min_cycle;Max_cycle;Signal;HPM_P1;HPM_P2
2022/10/13 03:02:21;;;;;;;36.13;18.38;;;10.20;99.90;;;;;;6327242;22;20023;-80
2022/10/13 03:04:48;;;;;;;42.67;19.08;;;10.20;99.90;;;;;;6313302;22;20011;-82
2022/10/13 03:07:13;;;;;;;38.40;18.48;;;10.20;99.90;;;;;;6313502;22;20443;-81
2022/10/13 03:09:39;;;;;;;38.25;18.73;;;10.10;99.90;;;;;;6313573;22;20011;-83
2022/10/13 03:12:05;;;;;;;32.63;17.98;;;10.20;99.90;;;;;;6313175;22;20045;-84
2022/10/13 03:14:30;;;;;;;41.47;18.10;;;10.20;99.90;;;;;;6313279;22;20026;-84
2022/10/13 03:16:56;;;;;;;31.35;17.35;;;10.10;99.90;;;;;;6341140;22;20067;-82
2022/10/13 03:19:22;;;;;;;39.65;18.35;;;10.10;99.90;;;;;;6313004;22;20343;-77
2022/10/13 03:21:48;;;;;;;37.28;19.35;;;10.20;99.90;;;;;;6340597;22;20011;-81
2022/10/13 03:24:13;;;;;;;39.38;19.33;;;10.20;99.90;;;;;;6287544;22;20011;-80
2022/10/13 03:26:39;;;;;;;37.58;19.45;;;10.20;99.90;;;;;;6313346;22;20384;-82
2022/10/13 03:29:05;;;;;;;42.38;19.38;;;10.20;99.90;;;;;;6287482;22;20011;-81
2022/10/13 03:31:30;;;;;;;33.75;18.73;;;10.20;99.90;;;;;;6313133;22;20007;-82
2022/10/13 03:33:56;;;;;;;39.00;19.08;;;10.20;99.90;;;;;;6312758;22;20351;-81
2022/10/13 03:36:21;;;;;;;36.78;19.75;;;10.20;99.90;;;;;;6287103;22;20018;-82
2022/10/13 03:38:47;;;;;;;41.58;20.15;;;10.20;99.90;;;;;;6287354;22;20007;-83
2022/10/13 03:41:16;;;;;;;37.67;19.90;;;10.20;99.90;;;;;;6340860;22;20010;-80
2022/10/13 03:43:43;;;;;;;40.15;19.95;;;10.20;99.90;;;;;;6312924;22;20371;-77
2022/10/13 03:46:12;;;;;;;44.13;20.38;;;10.20;99.90;;;;;;6340621;22;20014;-80
2022/10/13 03:48:38;;;;;;;42.08;20.60;;;10.20;99.90;;;;;;6312852;22;20090;-76
2022/10/13 03:51:10;;;;;;;42.42;20.77;;;10.20;99.90;;;;;;6312978;22;20007;-83
2022/10/13 03:53:36;;;;;;;36.00;19.33;;;10.20;99.90;;;;;;6312826;22;20111;-85
2022/10/13 03:56:03;;;;;;;45.42;20.73;;;10.20;99.90;;;;;;6312839;22;20118;-86
2022/10/13 03:58:28;;;;;;;44.83;22.48;;;10.20;99.90;;;;;;6313023;22;20014;-83
2022/10/13 04:00:55;;;;;;;41.13;20.50;;;10.20;99.90;;;;;;6312514;22;20010;-80
2022/10/13 04:03:20;;;;;;;41.08;21.88;;;10.30;99.90;;;;;;6313410;22;20006;-78
2022/10/13 04:05:47;;;;;;;41.88;20.42;;;10.20;99.90;;;;;;6313488;22;20347;-82
2022/10/13 04:08:13;;;;;;;44.28;20.92;;;10.20;99.90;;;;;;6313440;22;20003;-84
2022/10/13 04:10:39;;;;;;;43.70;21.88;;;10.20;99.90;;;;;;6312967;22;20063;-81
2022/10/13 04:13:06;;;;;;;38.17;21.35;;;10.30;99.90;;;;;;6341090;22;20011;-82
2022/10/13 04:15:39;;;;;;;44.67;21.50;;;10.20;99.90;;;;;;6313277;22;20018;-80
2022/10/13 04:18:06;;;;;;;49.95;23.60;;;10.30;99.90;;;;;;6313273;22;20452;-82
2022/10/13 04:20:39;;;;;;;53.80;24.27;;;10.30;99.90;;;;;;6312577;22;20455;-79
2022/10/13 04:23:05;;;;;;;46.13;23.80;;;10.30;99.90;;;;;;6312820;22;20041;-81
2022/10/13 04:25:37;;;;;;;45.75;22.08;;;10.30;99.90;;;;;;6312808;22;20105;-84
2022/10/13 04:28:07;;;;;;;46.72;22.90;;;10.30;99.90;;;;;;6313019;22;20014;-79
2022/10/13 04:30:33;;;;;;;46.97;22.83;;;10.30;99.90;;;;;;6313674;22;20007;-80
2022/10/13 04:32:59;;;;;;;47.97;22.98;;;10.30;99.90;;;;;;6312425;22;20452;-81
2022/10/13 04:35:25;;;;;;;43.10;23.48;;;10.30;99.90;;;;;;6313033;22;20049;-84
2022/10/13 04:37:50;;;;;;;48.95;24.02;;;10.30;99.90;;;;;;6313112;22;20015;-78
2022/10/13 04:40:16;;;;;;;53.08;23.67;;;10.30;99.90;;;;;;6287018;22;20044;-81
2022/10/13 04:42:42;;;;;;;58.15;26.35;;;10.30;99.90;;;;;;6312848;22;20011;-84
2022/10/13 04:45:08;;;;;;;56.80;25.52;;;10.30;99.90;;;;;;6312636;22;20093;-82
2022/10/13 04:47:35;;;;;;;53.85;25.88;;;10.30;99.90;;;;;;6312514;22;20011;-81
2022/10/13 04:50:01;;;;;;;49.83;24.60;;;10.30;99.90;;;;;;6312114;22;20060;-79
2022/10/13 04:52:27;;;;;;;56.10;26.23;;;10.30;99.90;;;;;;6312344;22;20320;-80
2022/10/13 04:54:52;;;;;;;58.95;27.02;;;10.30;99.90;;;;;;6312166;22;20018;-78
2022/10/13 04:57:18;;;;;;;57.90;27.45;;;10.30;99.90;;;;;;6312113;22;20010;-85
2022/10/13 04:59:44;;;;;;;63.83;28.90;;;10.30;99.90;;;;;;6286501;22;20336;-84
2022/10/13 05:02:09;;;;;;;56.63;28.35;;;10.30;99.90;;;;;;6312331;22;20091;-82
2022/10/13 05:04:35;;;;;;;60.35;25.88;;;10.30;99.90;;;;;;6312215;22;20347;-86
2022/10/13 05:07:01;;;;;;;56.30;27.63;;;10.40;99.90;;;;;;6312807;22;20006;-80
2022/10/13 05:09:27;;;;;;;59.78;28.75;;;10.40;99.90;;;;;;6312623;22;20022;-80
2022/10/13 05:11:54;;;;;;;66.45;29.35;;;10.40;99.90;;;;;;6312280;22;20011;-82
2022/10/13 05:14:20;;;;;;;56.80;28.67;;;10.40;99.90;;;;;;6286553;22;20068;-81
2022/10/13 05:16:46;;;;;;;59.13;28.88;;;10.40;99.90;;;;;;6340449;22;20021;-81
2022/10/13 05:19:12;;;;;;;63.75;29.75;;;10.40;99.90;;;;;;6312087;22;20089;-78
2022/10/13 05:21:37;;;;;;;64.82;30.15;;;10.50;99.90;;;;;;6340234;22;20077;-79
2022/10/13 05:24:05;;;;;;;64.95;30.48;;;10.50;99.90;;;;;;6313347;22;20025;-83
2022/10/13 05:26:34;;;;;;;72.80;30.63;;;10.50;99.90;;;;;;6340020;22;20010;-79
2022/10/13 05:29:01;;;;;;;60.05;28.27;;;10.50;99.90;;;;;;6312470;22;20041;-84
2022/10/13 05:31:28;;;;;;;68.00;30.50;;;10.50;99.90;;;;;;6312365;22;20041;-81
2022/10/13 05:33:55;;;;;;;73.13;30.48;;;10.50;99.90;;;;;;6340849;22;20010;-82
2022/10/13 05:36:23;;;;;;;67.10;29.25;;;10.50;99.90;;;;;;6312404;22;20049;-86
2022/10/13 05:38:51;;;;;;;59.38;26.02;;;10.50;99.90;;;;;;6312342;22;20011;-81
2022/10/13 05:41:17;;;;;;;67.90;29.38;;;10.50;99.90;;;;;;6312136;22;20014;-83
2022/10/13 05:43:42;;;;;;;66.53;29.85;;;10.50;99.90;;;;;;6312029;22;20397;-83
2022/10/13 05:46:09;;;;;;;63.65;29.10;;;10.50;99.90;;;;;;6339596;22;20007;-79
2022/10/13 05:48:35;;;;;;;71.80;30.70;;;10.50;99.90;;;;;;6311770;22;20006;-80
2022/10/13 05:51:05;;;;;;;59.58;27.98;;;10.50;99.90;;;;;;6312513;22;20050;-79
2022/10/13 05:53:35;;;;;;;63.95;28.48;;;10.50;99.90;;;;;;6340037;22;20011;-83
2022/10/13 05:56:10;;;;;;;63.08;27.83;;;10.50;99.90;;;;;;6311988;22;20015;-81
2022/10/13 05:58:38;;;;;;;;;;;10.50;99.90;;;;;;6312660;22;20487;-83
2022/10/13 06:01:11;;;;;;;69.35;28.13;;;10.60;99.90;;;;;;6311934;22;19911;-84
2022/10/13 06:03:38;;;;;;;69.25;27.70;;;10.60;99.90;;;;;;6311798;22;20014;-83
2022/10/13 06:06:08;;;;;;;60.50;27.83;;;10.50;99.90;;;;;;6312272;22;20018;-80
2022/10/13 06:08:34;;;;;;;70.80;29.48;;;10.50;99.90;;;;;;6312437;22;20007;-80
2022/10/13 06:11:01;;;;;;;61.42;28.30;;;10.50;99.90;;;;;;6312011;22;20013;-79
2022/10/13 06:13:27;;;;;;;61.10;28.80;;;10.50;99.90;;;;;;6311989;22;20064;-85
2022/10/13 06:15:53;;;;;;;61.40;29.15;;;10.50;99.90;;;;;;6312190;22;20019;-81
2022/10/13 06:18:18;;;;;;;67.72;28.63;;;10.60;99.90;;;;;;6339859;22;20014;-85
2022/10/13 06:20:44;;;;;;;62.45;27.02;;;10.60;99.90;;;;;;6339625;22;20007;-81
2022/10/13 06:23:10;;;;;;;62.60;28.15;;;10.60;99.90;;;;;;6311637;22;20021;-84
2022/10/13 06:25:35;;;;;;;57.22;26.60;;;10.60;99.90;;;;;;6339943;22;20011;-78
2022/10/13 06:28:01;;;;;;;51.75;25.50;;;10.60;99.90;;;;;;6340062;22;20007;-79
2022/10/13 06:30:27;;;;;;;55.20;26.42;;;10.70;99.90;;;;;;6310675;22;20033;-82
2022/10/13 06:32:56;;;;;;;62.50;27.40;;;10.60;99.90;;;;;;6310436;22;20118;-84
2022/10/13 06:35:22;;;;;;;65.78;26.80;;;10.70;99.90;;;;;;6310404;22;20050;-82
2022/10/13 06:37:48;;;;;;;61.38;27.70;;;10.70;99.90;;;;;;6310344;22;20349;-82
2022/10/13 06:40:14;;;;;;;60.70;25.90;;;10.70;99.90;;;;;;6310268;22;20010;-77
2022/10/13 06:42:40;;;;;;;60.95;26.17;;;10.70;99.90;;;;;;6310651;22;20515;-82
2022/10/13 06:45:06;;;;;;;57.85;25.83;;;10.70;99.90;;;;;;6339723;22;20053;-81
2022/10/13 06:47:32;;;;;;;60.47;27.10;;;10.80;99.90;;;;;;6312459;22;20064;-80
2022/10/13 06:49:57;;;;;;;59.30;26.52;;;10.80;99.90;;;;;;6312709;22;20015;-79
2022/10/13 06:52:23;;;;;;;59.35;26.23;;;10.80;99.90;;;;;;6340280;22;20021;-83
2022/10/13 06:54:48;;;;;;;58.45;26.63;;;10.90;99.90;;;;;;6312589;22;20018;-76
2022/10/13 06:57:14;;;;;;;68.03;29.02;;;10.80;99.90;;;;;;6312169;22;20011;-81
2022/10/13 06:59:40;;;;;;;57.70;27.05;;;10.90;99.90;;;;;;6312095;22;20007;-85
2022/10/13 07:02:06;;;;;;;61.72;26.17;;;10.90;99.90;;;;;;6311908;22;20339;-79
2022/10/13 07:04:31;;;;;;;63.30;26.98;;;10.90;99.90;;;;;;6311777;22;20067;-77
2022/10/13 07:06:57;;;;;;;61.20;27.58;;;10.90;99.90;;;;;;6311695;22;20013;-82
2022/10/13 07:09:22;;;;;;;58.88;27.25;;;11.00;99.90;;;;;;6311893;22;20003;-80
2022/10/13 07:11:49;;;;;;;64.80;28.35;;;11.00;99.90;;;;;;6312047;22;20010;-80
2022/10/13 07:14:15;;;;;;;59.05;27.52;;;11.10;99.90;;;;;;6311788;22;20010;-79
2022/10/13 07:16:40;;;;;;;59.97;27.83;;;11.10;99.90;;;;;;6285942;22;20021;-81
2022/10/13 07:19:06;;;;;;;65.18;27.58;;;11.10;99.90;;;;;;6285897;22;20018;-80
2022/10/13 07:21:32;;;;;;;63.35;28.52;;;11.10;99.90;;;;;;6312342;22;20013;-77
2022/10/13 07:23:58;;;;;;;51.08;20.10;;;11.20;99.90;;;;;;6312887;22;20449;-79
2022/10/13 07:26:23;;;;;;;63.80;26.13;;;11.20;99.90;;;;;;6313389;22;20340;-80
2022/10/13 07:28:49;;;;;;;62.13;26.35;;;11.30;99.90;;;;;;6313353;22;20447;-82
2022/10/13 07:31:18;;;;;;;67.63;26.50;;;11.20;99.90;;;;;;6313005;22;20011;-79
2022/10/13 07:33:47;;;;;;;56.80;25.17;;;11.30;99.90;;;;;;6313038;22;20050;-80
2022/10/13 07:36:13;;;;;;;62.35;27.40;;;11.30;99.90;;;;;;6340493;22;20432;-78
2022/10/13 07:38:39;;;;;;;64.88;27.60;;;11.40;99.90;;;;;;6313171;22;20007;-82
2022/10/13 07:41:07;;;;;;;64.55;27.40;;;11.40;99.90;;;;;;6313243;22;20026;-80
2022/10/13 07:43:33;;;;;;;65.43;28.02;;;11.40;99.90;;;;;;6313065;22;20015;-86
2022/10/13 07:46:00;;;;;;;64.40;27.27;;;11.50;99.90;;;;;;6313049;22;20150;-81
2022/10/13 07:48:27;;;;;;;63.85;26.90;;;11.50;99.90;;;;;;6312470;22;20444;-83
2022/10/13 07:50:52;;;;;;;68.95;27.15;;;11.50;99.90;;;;;;6312920;22;20048;-81
2022/10/13 07:53:18;;;;;;;61.88;27.40;;;11.60;99.90;;;;;;6340405;22;20370;-82
2022/10/13 07:55:43;;;;;;;59.65;26.77;;;11.60;99.90;;;;;;6312494;22;20014;-85
2022/10/13 07:58:09;;;;;;;69.15;27.35;;;11.60;99.90;;;;;;6312604;22;20027;-80
2022/10/13 08:00:35;;;;;;;64.88;27.92;;;11.60;99.90;;;;;;6312510;22;20018;-86
2022/10/13 08:03:01;;;;;;;62.63;28.35;;;11.70;99.90;;;;;;6287241;22;20022;-79
2022/10/13 08:05:27;;;;;;;63.35;28.35;;;11.70;99.90;;;;;;6312984;22;20029;-80
2022/10/13 08:07:52;;;;;;;68.95;28.50;;;11.80;99.90;;;;;;6312959;22;20053;-77
2022/10/13 08:10:18;;;;;;;63.90;28.13;;;11.80;99.90;;;;;;6313030;22;20007;-83
2022/10/13 08:12:44;;;;;;;64.50;28.08;;;11.80;99.90;;;;;;6313320;22;20444;-84
2022/10/13 08:15:10;;;;;;;71.88;29.48;;;11.80;99.90;;;;;;6312843;22;20025;-82
2022/10/13 08:17:36;;;;;;;67.22;28.85;;;11.90;99.90;;;;;;6312631;22;20010;-79
2022/10/13 08:20:03;;;;;;;65.60;30.65;;;11.90;99.90;;;;;;6312622;22;20006;-79
2022/10/13 08:22:29;;;;;;;65.70;28.30;;;11.90;99.90;;;;;;6312309;22;20444;-84
2022/10/13 08:24:54;;;;;;;68.38;30.65;;;12.00;99.90;;;;;;6312391;22;20046;-80
2022/10/13 08:27:23;;;;;;;67.43;32.05;;;12.00;99.90;;;;;;6312730;22;20002;-81
2022/10/13 08:29:49;;;;;;;62.80;29.85;;;12.00;99.90;;;;;;6340133;22;20011;-83
2022/10/13 08:32:15;;;;;;;73.43;30.42;;;12.10;99.90;;;;;;6312579;22;20015;-82
2022/10/13 08:34:41;;;;;;;69.65;30.27;;;12.10;99.90;;;;;;6313638;22;20018;-84
2022/10/13 08:37:13;;;;;;;71.75;30.88;;;12.20;99.90;;;;;;6340389;22;20010;-85
2022/10/13 08:39:39;;;;;;;74.20;32.17;;;12.20;99.90;;;;;;6312914;22;20018;-85
2022/10/13 08:42:17;;;;;;;64.75;31.38;;;12.20;99.90;;;;;;6312869;22;20010;-83
2022/10/13 08:44:48;;;;;;;64.20;30.80;;;12.20;99.90;;;;;;6312747;22;20019;-82
2022/10/13 08:47:29;;;;;;;67.32;30.05;;;12.20;99.90;;;;;;6313263;22;20037;-80
2022/10/13 08:49:58;;;;;;;67.20;29.02;;;12.20;99.90;;;;;;6340574;22;20010;-81
2022/10/13 08:52:27;;;;;;;62.05;30.42;;;12.20;99.90;;;;;;6312600;22;20113;-81
2022/10/13 08:54:54;;;;;;;73.15;31.88;;;12.20;99.90;;;;;;6312824;22;20050;-77
2022/10/13 08:57:21;;;;;;;73.40;30.00;;;12.20;99.90;;;;;;6312009;22;20018;-87
2022/10/13 08:59:47;;;;;;;64.75;28.55;;;12.20;99.90;;;;;;6312288;22;20411;-82
2022/10/13 09:02:28;;;;;;;65.90;30.63;;;12.20;99.90;;;;;;6311987;22;20436;-84
2022/10/13 09:04:56;;;;;;;67.53;29.25;;;12.20;99.90;;;;;;6312231;22;20050;-84
2022/10/13 09:07:30;;;;;;;75.78;31.40;;;12.20;99.90;;;;;;6311931;22;20007;-83
2022/10/13 09:09:56;;;;;;;74.38;32.15;;;12.30;99.90;;;;;;6313059;22;20014;-83
2022/10/13 09:12:23;;;;;;;73.50;30.58;;;12.30;99.90;;;;;;6340204;22;20014;-79
2022/10/13 09:15:02;;;;;;;66.43;27.30;;;12.30;99.90;;;;;;6311981;22;20014;-84
2022/10/13 09:17:29;;;;;;;69.88;30.50;;;12.30;99.90;;;;;;6312405;22;20428;-78
2022/10/13 09:20:03;;;;;;;62.60;28.80;;;12.30;99.90;;;;;;6340030;22;20011;-84
2022/10/13 09:22:37;;;;;;;56.15;27.33;;;12.30;99.90;;;;;;6285986;22;20011;-83
2022/10/13 09:25:05;;;;;;;56.90;28.17;;;12.30;99.90;;;;;;6340238;22;20030;-82
2022/10/13 09:27:53;;;;;;;58.67;27.10;;;12.30;99.90;;;;;;6312736;22;20018;-81
2022/10/13 09:30:27;;;;;;;49.85;25.63;;;12.30;99.90;;;;;;6316155;22;20011;-80
2022/10/13 09:33:10;;;;;;;57.08;27.30;;;12.30;99.90;;;;;;6320297;22;20014;-77
2022/10/13 09:35:44;;;;;;;59.40;29.02;;;12.30;99.90;;;;;;6287771;22;20026;-83
2022/10/13 09:38:18;;;;;;;55.40;27.83;;;12.30;99.90;;;;;;6313029;22;20343;-81
2022/10/13 09:41:05;;;;;;;61.28;28.77;;;12.40;99.90;;;;;;6312499;22;20010;-84
2022/10/13 09:43:45;;;;;;;53.13;27.10;;;12.40;99.90;;;;;;6340109;22;20094;-83
2022/10/13 09:46:24;;;;;;;65.15;29.38;;;12.40;99.90;;;;;;6311745;22;20015;-84
2022/10/13 09:48:57;;;;;;;63.45;28.30;;;12.40;99.90;;;;;;6339996;22;20007;-79
2022/10/13 09:51:33;;;;;;;67.28;30.75;;;12.40;99.90;;;;;;6339559;22;20064;-82
2022/10/13 09:54:00;;;;;;;62.97;30.40;;;12.40;99.90;;;;;;6311718;22;20089;-80
2022/10/13 09:56:42;;;;;;;68.82;30.42;;;12.40;99.90;;;;;;6286481;22;20135;-84
2022/10/13 09:59:22;;;;;;;66.65;30.25;;;12.40;99.90;;;;;;6312345;22;20030;-80
2022/10/13 10:01:51;;;;;;;74.95;32.80;;;12.50;99.90;;;;;;6311369;22;20019;-82
2022/10/13 10:04:22;;;;;;;75.10;32.92;;;12.50;99.90;;;;;;6339025;22;20018;-85
2022/10/13 10:06:47;;;;;;;71.40;31.70;;;12.50;99.90;;;;;;6311571;22;20432;-78
2022/10/13 10:09:33;;;;;;;72.15;31.80;;;12.50;99.90;;;;;;6311678;22;20021;-85
2022/10/13 10:12:00;;;;;;;80.85;32.55;;;12.50;99.90;;;;;;6311419;22;20015;-82
2022/10/13 10:14:29;;;;;;;83.18;33.88;;;12.60;99.90;;;;;;6311506;22;20011;-83
2022/10/13 10:17:30;;;;;;;77.93;33.08;;;12.60;99.90;;;;;;6311684;22;20025;-83
2022/10/13 10:20:05;;;;;;;73.50;31.70;;;12.60;99.90;;;;;;6313793;22;20015;-79
2022/10/13 10:22:49;;;;;;;75.60;32.63;;;12.60;99.90;;;;;;6313874;22;20011;-81
2022/10/13 10:25:25;;;;;;;84.03;32.92;;;12.60;99.90;;;;;;6287998;22;20422;-81
2022/10/13 10:28:10;;;;;;;;;;;12.60;99.90;;;;;;6314238;22;20366;-85
2022/10/13 10:30:47;;;;;;;78.70;36.17;;;12.70;99.90;;;;;;6312836;22;19910;-78
2022/10/13 10:33:20;;;;;;;77.85;33.03;;;12.70;99.90;;;;;;6313894;22;20022;-83
2022/10/13 10:36:15;;;;;;;83.80;33.75;;;12.70;99.90;;;;;;6313784;22;20015;-84
2022/10/13 10:39:09;;;;;;;83.22;33.17;;;12.70;99.90;;;;;;6313337;22;20010;-82
2022/10/13 10:41:35;;;;;;;75.00;32.08;;;12.70;99.90;;;;;;6291970;22;20344;-83
2022/10/13 10:44:14;;;;;;;81.43;34.08;;;12.70;99.90;;;;;;6313298;22;20011;-80
2022/10/13 10:46:53;;;;;;;78.32;33.47;;;12.70;99.90;;;;;;6287797;22;20009;-83
2022/10/13 10:49:29;;;;;;;96.45;36.05;;;12.80;99.90;;;;;;6341141;22;20018;-84
2022/10/13 10:51:55;;;;;;;92.78;34.58;;;12.80;99.90;;;;;;6313436;22;20018;-82
2022/10/13 10:54:44;;;;;;;85.13;40.30;;;12.80;99.90;;;;;;6313126;22;20017;-83
2022/10/13 10:57:32;;;;;;;84.82;34.47;;;12.90;99.90;;;;;;6313492;22;20436;-83
2022/10/13 11:00:05;;;;;;;75.30;33.13;;;12.90;99.90;;;;;;6313326;22;20048;-84
2022/10/13 11:02:58;;;;;;;91.60;34.85;;;13.00;99.90;;;;;;6312437;22;20033;-83
2022/10/13 11:05:24;;;;;;;85.88;32.42;;;13.00;99.90;;;;;;6313185;22;20333;-85
2022/10/13 11:07:49;;;;;;;85.60;33.45;;;13.10;99.90;;;;;;6340835;22;20011;-78
2022/10/13 11:10:20;;;;;;;94.88;34.92;;;13.10;99.90;;;;;;6313204;22;20095;-83
2022/10/13 11:12:51;;;;;;;92.22;35.08;;;13.20;99.90;;;;;;6287384;22;20522;-81
2022/10/13 11:15:24;;;;;;;82.15;37.30;;;13.20;99.90;;;;;;6313062;22;20063;-79
2022/10/13 11:17:51;;;;;;;79.78;33.53;;;13.20;99.90;;;;;;6286530;22;20011;-82
2022/10/13 11:20:19;;;;;;;82.30;32.28;;;13.30;99.90;;;;;;6312918;22;20490;-80
2022/10/13 11:22:57;;;;;;;81.40;33.92;;;13.30;99.90;;;;;;6288198;22;20488;-81
2022/10/13 11:25:40;;;;;;;81.07;32.33;;;13.30;99.90;;;;;;6312567;22;20011;-80
2022/10/13 11:28:21;;;;;;;61.60;27.10;;;13.40;99.90;;;;;;6313078;22;20089;-80
2022/10/13 11:30:49;;;;;;;81.60;34.30;;;13.40;99.90;;;;;;6312736;22;20015;-83
2022/10/13 11:33:50;;;;;;;73.72;31.38;;;13.40;99.90;;;;;;6286954;22;20014;-83
2022/10/13 11:36:36;;;;;;;71.15;30.67;;;13.40;99.90;;;;;;6287225;22;20053;-80
2022/10/13 11:39:24;;;;;;;72.35;31.95;;;13.40;99.90;;;;;;6312441;22;20007;-83
2022/10/13 11:42:11;;;;;;;73.53;32.40;;;13.40;99.90;;;;;;6312618;22;20390;-85
2022/10/13 11:44:53;;;;;;;71.05;32.22;;;13.40;99.90;;;;;;6312980;22;20089;-79
2022/10/13 11:47:18;;;;;;;73.20;31.23;;;13.50;99.90;;;;;;6288147;22;20029;-81
2022/10/13 11:50:00;;;;;;;68.15;30.85;;;13.50;99.90;;;;;;6313545;22;20418;-84
2022/10/13 11:52:54;;;;;;;72.18;31.00;;;13.50;99.90;;;;;;6313678;22;20013;-83
2022/10/13 11:55:50;;;;;;;71.72;31.50;;;13.50;99.90;;;;;;6261893;22;20569;-80
2022/10/13 11:58:23;;;;;;;73.35;31.92;;;13.50;99.90;;;;;;6301091;22;20028;-76
2022/10/13 12:00:50;;;;;;;65.88;29.45;;;13.50;99.90;;;;;;6313648;22;20007;-83
2022/10/13 12:03:21;;;;;;;72.85;30.85;;;13.50;99.90;;;;;;6314154;22;20090;-78
2022/10/13 12:05:48;;;;;;;59.28;28.85;;;13.50;99.90;;;;;;6314406;22;20049;-78
2022/10/13 12:08:14;;;;;;;69.00;30.92;;;13.50;99.90;;;;;;6313647;22;20015;-80
2022/10/13 12:10:40;;;;;;;71.57;30.75;;;13.50;99.90;;;;;;6313663;22;20025;-85
2022/10/13 12:13:07;;;;;;;66.15;30.67;;;13.50;99.90;;;;;;6341386;22;20019;-83
2022/10/13 12:15:40;;;;;;;65.32;28.17;;;13.50;99.90;;;;;;6313518;22;20081;-85
2022/10/13 12:18:25;;;;;;;70.15;31.42;;;13.50;99.90;;;;;;6313309;22;20017;-80
2022/10/13 12:20:54;;;;;;;64.05;30.35;;;13.50;99.90;;;;;;6313352;22;20011;-79
2022/10/13 12:23:20;;;;;;;79.53;31.90;;;13.50;99.90;;;;;;6313365;22;20015;-83
2022/10/13 12:25:48;;;;;;;85.47;32.05;;;13.50;99.90;;;;;;6313194;22;20344;-80
2022/10/13 12:28:19;;;;;;;50.42;22.45;;;13.50;99.90;;;;;;6340888;22;20010;-84
2022/10/13 12:30:53;;;;;;;54.40;23.08;;;13.50;99.90;;;;;;6313015;22;20003;-86
2022/10/13 12:33:34;;;;;;;60.53;28.67;;;13.60;99.90;;;;;;6313539;22;20344;-80
2022/10/13 12:36:20;;;;;;;73.78;32.10;;;13.60;99.90;;;;;;6313006;22;20021;-83
2022/10/13 12:38:52;;;;;;;71.53;30.15;;;13.60;99.90;;;;;;6313089;22;20444;-80
2022/10/13 12:41:29;;;;;;;65.40;29.83;;;13.60;99.90;;;;;;6340135;22;20018;-78
2022/10/13 12:43:55;;;;;;;62.53;30.33;;;13.50;99.90;;;;;;6340838;22;20011;-81
2022/10/13 12:46:46;;;;;;;77.05;32.22;;;13.60;99.90;;;;;;6313116;22;20038;-76
2022/10/13 12:49:32;;;;;;;79.05;32.53;;;13.60;99.90;;;;;;6312886;22;20038;-82
2022/10/13 12:52:16;;;;;;;;;;;13.60;99.90;;;;;;6313372;22;20003;-83
2022/10/13 12:54:50;;;;;;;62.15;27.65;;;13.60;99.90;;;;;;6313100;22;19932;-80
2022/10/13 12:57:18;;;;;;;62.33;30.27;;;13.60;99.90;;;;;;6312943;22;20442;-81
2022/10/13 12:59:45;;;;;;;62.10;30.70;;;13.60;99.90;;;;;;6312878;22;20014;-81
2022/10/13 13:02:31;;;;;;;71.25;31.17;;;13.60;99.90;;;;;;6340240;22;20036;-79
2022/10/13 13:04:57;;;;;;;61.75;30.05;;;13.70;99.90;;;;;;6340880;22;20498;-82
2022/10/13 13:07:36;;;;;;;68.50;30.48;;;13.70;99.90;;;;;;6312464;22;20011;-83
2022/10/13 13:10:22;;;;;;;63.80;30.15;;;13.70;99.90;;;;;;6312849;22;20032;-80
2022/10/13 13:12:48;;;;;;;;;;;13.70;99.90;;;;;;6312520;22;20038;-81
2022/10/13 13:15:23;;;;;;;63.35;29.65;;;13.70;99.90;;;;;;6312625;22;20234;-81
2022/10/13 13:17:49;;;;;;;60.42;27.67;;;13.70;99.90;;;;;;6312209;22;20018;-77
2022/10/13 13:20:28;;;;;;;63.80;28.70;;;13.70;99.90;;;;;;6311938;22;20502;-81
2022/10/13 13:22:54;;;;;;;53.42;27.30;;;13.70;99.90;;;;;;6312477;22;20014;-80
2022/10/13 13:25:20;;;;;;;56.05;27.73;;;13.70;99.90;;;;;;6286865;22;20002;-81
2022/10/13 13:27:46;;;;;;;64.25;28.55;;;13.70;99.90;;;;;;6313032;22;20015;-84
2022/10/13 13:30:15;;;;;;;50.65;26.55;;;13.80;99.90;;;;;;6340101;22;20022;-86
2022/10/13 13:32:41;;;;;;;61.10;28.17;;;13.70;99.90;;;;;;6340388;22;20011;-77
2022/10/13 13:35:07;;;;;;;56.85;27.55;;;13.70;99.90;;;;;;6313106;22;20093;-83
2022/10/13 13:37:38;;;;;;;52.40;26.88;;;13.80;99.90;;;;;;6313269;22;20011;-82
2022/10/13 13:40:05;;;;;;;59.95;27.42;;;13.70;99.90;;;;;;6313091;22;20061;-79
2022/10/13 13:42:31;;;;;;;55.42;26.77;;;13.80;99.90;;;;;;6313070;22;20007;-84
2022/10/13 13:44:57;;;;;;;55.95;26.77;;;13.70;99.90;;;;;;6312510;22;20011;-79
2022/10/13 13:47:25;;;;;;;49.78;25.75;;;13.80;99.90;;;;;;6312848;22;20006;-85
2022/10/13 13:49:53;;;;;;;51.08;25.83;;;13.80;99.90;;;;;;6312990;22;20057;-83
2022/10/13 13:52:20;;;;;;;52.20;26.20;;;13.70;99.90;;;;;;6340164;22;20059;-84
2022/10/13 13:54:47;;;;;;;51.97;26.00;;;13.80;99.90;;;;;;6340483;22;20099;-85
2022/10/13 13:57:14;;;;;;;55.67;26.65;;;13.70;99.90;;;;;;6312419;22;20021;-81
2022/10/13 13:59:40;;;;;;;61.38;28.75;;;13.80;99.90;;;;;;6312437;22;20328;-82
2022/10/13 14:02:11;;;;;;;55.00;26.17;;;13.80;99.90;;;;;;6312449;22;20015;-79
2022/10/13 14:04:37;;;;;;;53.97;26.55;;;13.80;99.90;;;;;;6340114;22;20344;-78
2022/10/13 14:07:03;;;;;;;50.72;26.80;;;13.80;99.90;;;;;;6286631;22;20011;-85
2022/10/13 14:09:29;;;;;;;52.15;25.58;;;13.90;99.90;;;;;;6312429;22;20021;-84
2022/10/13 14:11:54;;;;;;;55.13;26.83;;;13.90;99.90;;;;;;6311960;22;20018;-77
2022/10/13 14:14:20;;;;;;;48.33;27.05;;;13.90;99.90;;;;;;6312565;22;20011;-82
2022/10/13 14:16:46;;;;;;;66.95;28.60;;;13.90;99.90;;;;;;6312335;22;20475;-80
2022/10/13 14:19:11;;;;;;;51.83;26.08;;;13.90;99.90;;;;;;6313161;22;20015;-84
2022/10/13 14:21:37;;;;;;;53.35;27.55;;;13.90;99.90;;;;;;6316098;22;20007;-78
2022/10/13 14:24:03;;;;;;;51.80;25.75;;;13.90;99.90;;;;;;6318102;22;20014;-77
2022/10/13 14:26:30;;;;;;;47.88;24.95;;;13.90;99.90;;;;;;6325439;22;20014;-75
2022/10/13 14:28:56;;;;;;;42.47;23.90;;;13.90;99.90;;;;;;6322933;22;20042;-80
2022/10/13 14:31:22;;;;;;;45.05;23.98;;;13.90;99.90;;;;;;6314060;22;20029;-85
2022/10/13 14:33:48;;;;;;;38.80;22.85;;;13.90;99.90;;;;;;6313040;22;20456;-80
2022/10/13 14:36:13;;;;;;;42.58;22.83;;;14.00;99.90;;;;;;6312350;22;20011;-81
2022/10/13 14:38:39;;;;;;;42.33;23.20;;;13.90;99.90;;;;;;6312268;22;20090;-84
2022/10/13 14:41:06;;;;;;;38.47;22.70;;;13.90;99.90;;;;;;6312231;22;20021;-81
2022/10/13 14:43:31;;;;;;;44.20;24.58;;;13.90;99.90;;;;;;6312255;22;20050;-83
2022/10/13 14:46:01;;;;;;;40.92;23.67;;;13.90;99.90;;;;;;6312010;22;20033;-82
2022/10/13 14:48:28;;;;;;;40.83;22.77;;;13.90;99.90;;;;;;6312186;22;20517;-79
2022/10/13 14:50:54;;;;;;;38.13;20.20;;;14.00;99.90;;;;;;6311533;22;20313;-79
2022/10/13 14:53:19;;;;;;;35.42;21.08;;;14.00;99.90;;;;;;6311878;22;20048;-82
2022/10/13 14:55:45;;;;;;;40.67;21.98;;;13.90;99.90;;;;;;6286053;22;20014;-83
2022/10/13 14:58:11;;;;;;;32.65;19.17;;;14.00;99.90;;;;;;6312228;22;20068;-80
2022/10/13 15:00:37;;;;;;;36.67;20.17;;;13.90;99.90;;;;;;6311547;22;20178;-80
2022/10/13 15:03:03;;;;;;;33.60;18.92;;;13.90;99.90;;;;;;6286321;22;20007;-83
2022/10/13 15:05:29;;;;;;;31.92;19.08;;;13.90;99.90;;;;;;6313374;22;20010;-81
2022/10/13 15:07:55;;;;;;;36.00;19.20;;;13.90;99.90;;;;;;6313973;22;20010;-78
2022/10/13 15:10:20;;;;;;;42.60;22.10;;;13.90;99.90;;;;;;6313681;22;20014;-80
2022/10/13 15:12:46;;;;;;;37.35;20.52;;;13.90;99.90;;;;;;6288001;22;20321;-80
2022/10/13 15:15:12;;;;;;;29.42;17.95;;;13.90;99.90;;;;;;6287920;22;20089;-83
2022/10/13 15:17:37;;;;;;;29.38;17.63;;;13.90;99.90;;;;;;6313791;22;20010;-83
2022/10/13 15:20:04;;;;;;;25.05;16.77;;;13.80;99.90;;;;;;6313687;22;20007;-80
2022/10/13 15:22:30;;;;;;;34.58;19.25;;;13.90;99.90;;;;;;6313643;22;20011;-82
2022/10/13 15:24:56;;;;;;;37.33;19.35;;;13.80;99.90;;;;;;6341397;22;20040;-86
2022/10/13 15:27:22;;;;;;;29.25;16.73;;;13.80;99.90;;;;;;6313704;22;20124;-82
2022/10/13 15:29:47;;;;;;;27.70;14.82;;;13.80;99.90;;;;;;6313659;22;20057;-84
2022/10/13 15:32:16;;;;;;;22.88;12.18;;;13.80;99.90;;;;;;6341289;22;20440;-81
2022/10/13 15:34:43;;;;;;;28.73;15.93;;;13.80;99.90;;;;;;6341532;22;20093;-80
2022/10/13 15:37:09;;;;;;;33.20;17.08;;;13.80;99.90;;;;;;6287443;22;20015;-84
2022/10/13 15:39:35;;;;;;;32.05;17.65;;;13.80;99.90;;;;;;6287654;22;20007;-77
2022/10/13 15:42:02;;;;;;;30.55;16.63;;;13.80;99.90;;;;;;6340766;22;20002;-79